Terminal Aerodrome Forecast
Issued by NWS

Home | Current Version | Previous Version | Text Only | Print | Product List | Glossary On
Versions: 1 2 3 4 5 6 7 8 9 10 11 12 13 14 15 16 17 18 19 20 21 22 23
121
FTUS41 KCAR 181739
TAFPQI
TAF
KPQI 181739Z 1818/1918 VRB03KT P6SM BKN080
     FM190600 12008KT P6SM OVC030
     FM190800 12010KT 2SM -FZRASNPL BR OVC015
     FM191000 15012G22KT 3SM -RA BR OVC008=

USA.gov is the U.S. government's official web portal to all federal, state and local government web resources and services.